sensor_id;sensor_type;location;lat;lon;timestamp;pressure;altitude;pressure_sealevel;temperature
20848;BMP180;10584;50.854;12.902;2024-03-29T00:00:01;96588.00;;;6.80
20848;BMP180;10584;50.854;12.902;2024-03-29T00:05:35;96582.00;;;6.70
20848;BMP180;10584;50.854;12.902;2024-03-29T00:10:55;96581.00;;;6.60
20848;BMP180;10584;50.854;12.902;2024-03-29T00:16:16;96582.00;;;6.70
20848;BMP180;10584;50.854;12.902;2024-03-29T00:21:39;96593.00;;;6.70
20848;BMP180;10584;50.854;12.902;2024-03-29T00:27:00;96598.00;;;6.70
20848;BMP180;10584;50.854;12.902;2024-03-29T00:32:23;96608.00;;;6.70
20848;BMP180;10584;50.854;12.902;2024-03-29T00:37:49;96618.00;;;6.80
20848;BMP180;10584;50.854;12.902;2024-03-29T00:43:13;96613.00;;;6.80
20848;BMP180;10584;50.854;12.902;2024-03-29T00:48:39;96621.00;;;6.80
20848;BMP180;10584;50.854;12.902;2024-03-29T00:54:07;96623.00;;;6.70
20848;BMP180;10584;50.854;12.902;2024-03-29T00:59:28;96640.00;;;6.70
20848;BMP180;10584;50.854;12.902;2024-03-29T01:04:48;96636.00;;;6.50
20848;BMP180;10584;50.854;12.902;2024-03-29T01:10:09;96628.00;;;6.30
20848;BMP180;10584;50.854;12.902;2024-03-29T01:15:30;96637.00;;;6.10
20848;BMP180;10584;50.854;12.902;2024-03-29T01:20:53;96617.00;;;5.70
20848;BMP180;10584;50.854;12.902;2024-03-29T01:26:13;96598.00;;;5.50
20848;BMP180;10584;50.854;12.902;2024-03-29T01:31:42;96592.00;;;5.30
20848;BMP180;10584;50.854;12.902;2024-03-29T01:37:02;96602.00;;;5.30
20848;BMP180;10584;50.854;12.902;2024-03-29T01:42:23;96595.00;;;5.30
20848;BMP180;10584;50.854;12.902;2024-03-29T01:47:44;96604.00;;;5.30
20848;BMP180;10584;50.854;12.902;2024-03-29T01:53:06;96596.00;;;5.10
20848;BMP180;10584;50.854;12.902;2024-03-29T01:58:28;96588.00;;;5.10
20848;BMP180;10584;50.854;12.902;2024-03-29T02:03:52;96591.00;;;5.00
20848;BMP180;10584;50.854;12.902;2024-03-29T02:09:13;96583.00;;;5.00
20848;BMP180;10584;50.854;12.902;2024-03-29T02:14:36;96588.00;;;4.90
20848;BMP180;10584;50.854;12.902;2024-03-29T02:19:56;96603.00;;;4.80
20848;BMP180;10584;50.854;12.902;2024-03-29T02:25:17;96595.00;;;4.80
20848;BMP180;10584;50.854;12.902;2024-03-29T02:30:38;96606.00;;;4.90
20848;BMP180;10584;50.854;12.902;2024-03-29T02:35:59;96617.00;;;4.80
20848;BMP180;10584;50.854;12.902;2024-03-29T02:41:25;96625.00;;;4.70
20848;BMP180;10584;50.854;12.902;2024-03-29T02:46:52;96617.00;;;4.60
20848;BMP180;10584;50.854;12.902;2024-03-29T02:52:15;96608.00;;;4.70
20848;BMP180;10584;50.854;12.902;2024-03-29T02:57:36;96620.00;;;4.60
20848;BMP180;10584;50.854;12.902;2024-03-29T03:03:05;96609.00;;;4.60
20848;BMP180;10584;50.854;12.902;2024-03-29T03:08:29;96624.00;;;4.60
20848;BMP180;10584;50.854;12.902;2024-03-29T03:14:08;96618.00;;;4.60
20848;BMP180;10584;50.854;12.902;2024-03-29T03:19:29;96603.00;;;4.60
20848;BMP180;10584;50.854;12.902;2024-03-29T03:24:50;96587.00;;;4.60
20848;BMP180;10584;50.854;12.902;2024-03-29T03:30:11;96567.00;;;4.50
20848;BMP180;10584;50.854;12.902;2024-03-29T03:35:32;96585.00;;;4.50
20848;BMP180;10584;50.854;12.902;2024-03-29T03:40:52;96609.00;;;4.50
20848;BMP180;10584;50.854;12.902;2024-03-29T03:46:13;96609.00;;;4.60
20848;BMP180;10584;50.854;12.902;2024-03-29T03:51:36;96594.00;;;4.70
20848;BMP180;10584;50.854;12.902;2024-03-29T03:57:00;96598.00;;;4.90
20848;BMP180;10584;50.854;12.902;2024-03-29T04:02:20;96587.00;;;5.10
20848;BMP180;10584;50.854;12.902;2024-03-29T04:07:41;96586.00;;;5.20
20848;BMP180;10584;50.854;12.902;2024-03-29T04:13:02;96570.00;;;5.20
20848;BMP180;10584;50.854;12.902;2024-03-29T04:18:23;96564.00;;;5.30
20848;BMP180;10584;50.854;12.902;2024-03-29T04:23:48;96574.00;;;5.50
20848;BMP180;10584;50.854;12.902;2024-03-29T04:29:11;96558.00;;;5.70
20848;BMP180;10584;50.854;12.902;2024-03-29T04:34:31;96544.00;;;5.80
20848;BMP180;10584;50.854;12.902;2024-03-29T04:39:52;96533.00;;;5.90
20848;BMP180;10584;50.854;12.902;2024-03-29T04:45:13;96529.00;;;6.00
20848;BMP180;10584;50.854;12.902;2024-03-29T04:50:34;96547.00;;;6.10
20848;BMP180;10584;50.854;12.902;2024-03-29T04:55:57;96564.00;;;6.20
20848;BMP180;10584;50.854;12.902;2024-03-29T05:01:21;96556.00;;;6.30
20848;BMP180;10584;50.854;12.902;2024-03-29T05:06:42;96561.00;;;6.40
20848;BMP180;10584;50.854;12.902;2024-03-29T05:12:03;96542.00;;;6.50
20848;BMP180;10584;50.854;12.902;2024-03-29T05:17:23;96571.00;;;6.60
20848;BMP180;10584;50.854;12.902;2024-03-29T05:22:47;96560.00;;;6.80
20848;BMP180;10584;50.854;12.902;2024-03-29T05:28:15;96566.00;;;6.90
20848;BMP180;10584;50.854;12.902;2024-03-29T05:33:35;96565.00;;;7.00
20848;BMP180;10584;50.854;12.902;2024-03-29T05:39:00;96582.00;;;7.20
20848;BMP180;10584;50.854;12.902;2024-03-29T05:44:20;96604.00;;;7.30
20848;BMP180;10584;50.854;12.902;2024-03-29T05:49:41;96600.00;;;7.40
20848;BMP180;10584;50.854;12.902;2024-03-29T05:55:02;96597.00;;;7.40
20848;BMP180;10584;50.854;12.902;2024-03-29T06:00:27;96598.00;;;7.60
20848;BMP180;10584;50.854;12.902;2024-03-29T06:05:47;96617.00;;;7.60
20848;BMP180;10584;50.854;12.902;2024-03-29T06:11:08;96619.00;;;7.80
20848;BMP180;10584;50.854;12.902;2024-03-29T06:16:29;96634.00;;;7.90
20848;BMP180;10584;50.854;12.902;2024-03-29T06:22:15;96638.00;;;7.90
20848;BMP180;10584;50.854;12.902;2024-03-29T06:27:41;96628.00;;;8.00
20848;BMP180;10584;50.854;12.902;2024-03-29T06:33:06;96627.00;;;8.10
20848;BMP180;10584;50.854;12.902;2024-03-29T06:38:28;96610.00;;;8.20
20848;BMP180;10584;50.854;12.902;2024-03-29T06:43:51;96605.00;;;8.30
20848;BMP180;10584;50.854;12.902;2024-03-29T06:49:19;96598.00;;;8.40
20848;BMP180;10584;50.854;12.902;2024-03-29T06:54:40;96602.00;;;8.50
20848;BMP180;10584;50.854;12.902;2024-03-29T07:00:02;96612.00;;;8.50
20848;BMP180;10584;50.854;12.902;2024-03-29T07:05:23;96612.00;;;8.60
20848;BMP180;10584;50.854;12.902;2024-03-29T07:10:47;96599.00;;;8.60
20848;BMP180;10584;50.854;12.902;2024-03-29T07:16:07;96600.00;;;8.70
20848;BMP180;10584;50.854;12.902;2024-03-29T07:21:28;96585.00;;;8.80
20848;BMP180;10584;50.854;12.902;2024-03-29T07:26:51;96590.00;;;8.90
20848;BMP180;10584;50.854;12.902;2024-03-29T07:32:17;96602.00;;;9.10
20848;BMP180;10584;50.854;12.902;2024-03-29T07:37:37;96621.00;;;9.20
20848;BMP180;10584;50.854;12.902;2024-03-29T07:43:00;96635.00;;;9.30
20848;BMP180;10584;50.854;12.902;2024-03-29T07:48:21;96649.00;;;9.50
20848;BMP180;10584;50.854;12.902;2024-03-29T07:53:45;96649.00;;;9.60
20848;BMP180;10584;50.854;12.902;2024-03-29T07:59:07;96667.00;;;9.70
20848;BMP180;10584;50.854;12.902;2024-03-29T08:04:28;96645.00;;;9.80
20848;BMP180;10584;50.854;12.902;2024-03-29T08:09:50;96647.00;;;9.90
20848;BMP180;10584;50.854;12.902;2024-03-29T08:15:14;96659.00;;;9.90
20848;BMP180;10584;50.854;12.902;2024-03-29T08:20:35;96650.00;;;10.00
20848;BMP180;10584;50.854;12.902;2024-03-29T08:25:56;96639.00;;;10.00
20848;BMP180;10584;50.854;12.902;2024-03-29T08:31:30;96645.00;;;10.00
20848;BMP180;10584;50.854;12.902;2024-03-29T08:36:51;96644.00;;;10.00
20848;BMP180;10584;50.854;12.902;2024-03-29T08:42:14;96635.00;;;9.90
20848;BMP180;10584;50.854;12.902;2024-03-29T08:47:37;96638.00;;;9.90
20848;BMP180;10584;50.854;12.902;2024-03-29T08:52:57;96636.00;;;9.90
20848;BMP180;10584;50.854;12.902;2024-03-29T08:58:24;96629.00;;;9.80
20848;BMP180;10584;50.854;12.902;2024-03-29T09:03:49;96622.00;;;9.90
20848;BMP180;10584;50.854;12.902;2024-03-29T09:09:12;96617.00;;;9.80
20848;BMP180;10584;50.854;12.902;2024-03-29T09:14:34;96612.00;;;9.70
20848;BMP180;10584;50.854;12.902;2024-03-29T09:19:55;96606.00;;;9.70
20848;BMP180;10584;50.854;12.902;2024-03-29T09:25:16;96599.00;;;9.70
20848;BMP180;10584;50.854;12.902;2024-03-29T09:30:36;96584.00;;;9.80
20848;BMP180;10584;50.854;12.902;2024-03-29T09:35:57;96578.00;;;10.00
20848;BMP180;10584;50.854;12.902;2024-03-29T09:41:24;96564.00;;;10.10
20848;BMP180;10584;50.854;12.902;2024-03-29T09:46:46;96560.00;;;10.20
20848;BMP180;10584;50.854;12.902;2024-03-29T09:52:10;96567.00;;;10.50
20848;BMP180;10584;50.854;12.902;2024-03-29T09:57:32;96565.00;;;10.70
20848;BMP180;10584;50.854;12.902;2024-03-29T10:02:55;96545.00;;;11.00
20848;BMP180;10584;50.854;12.902;2024-03-29T10:08:19;96544.00;;;11.40
20848;BMP180;10584;50.854;12.902;2024-03-29T10:13:39;96529.00;;;11.90
20848;BMP180;10584;50.854;12.902;2024-03-29T10:19:00;96534.00;;;12.30
20848;BMP180;10584;50.854;12.902;2024-03-29T10:24:28;96522.00;;;12.70
20848;BMP180;10584;50.854;12.902;2024-03-29T10:29:52;96522.00;;;12.90
20848;BMP180;10584;50.854;12.902;2024-03-29T10:35:13;96535.00;;;13.10
20848;BMP180;10584;50.854;12.902;2024-03-29T10:40:34;96546.00;;;13.20
20848;BMP180;10584;50.854;12.902;2024-03-29T10:46:00;96554.00;;;13.20
20848;BMP180;10584;50.854;12.902;2024-03-29T10:51:25;96557.00;;;13.40
20848;BMP180;10584;50.854;12.902;2024-03-29T10:56:59;96568.00;;;13.40
20848;BMP180;10584;50.854;12.902;2024-03-29T11:02:34;96568.00;;;13.50
20848;BMP180;10584;50.854;12.902;2024-03-29T11:08:00;96564.00;;;13.60
20848;BMP180;10584;50.854;12.902;2024-03-29T11:13:53;96586.00;;;13.70
20848;BMP180;10584;50.854;12.902;2024-03-29T11:19:17;96582.00;;;13.70
20848;BMP180;10584;50.854;12.902;2024-03-29T11:24:39;96588.00;;;13.70
20848;BMP180;10584;50.854;12.902;2024-03-29T11:30:02;96592.00;;;13.70
20848;BMP180;10584;50.854;12.902;2024-03-29T11:35:27;96609.00;;;13.80
20848;BMP180;10584;50.854;12.902;2024-03-29T11:41:07;96620.00;;;13.90
20848;BMP180;10584;50.854;12.902;2024-03-29T11:46:30;96626.00;;;13.90
20848;BMP180;10584;50.854;12.902;2024-03-29T11:52:05;96639.00;;;14.00
20848;BMP180;10584;50.854;12.902;2024-03-29T11:57:30;96642.00;;;13.80
20848;BMP180;10584;50.854;12.902;2024-03-29T12:02:51;96640.00;;;13.70
20848;BMP180;10584;50.854;12.902;2024-03-29T12:08:18;96657.00;;;13.40
20848;BMP180;10584;50.854;12.902;2024-03-29T12:13:38;96660.00;;;13.40
20848;BMP180;10584;50.854;12.902;2024-03-29T12:19:03;96664.00;;;13.40
20848;BMP180;10584;50.854;12.902;2024-03-29T12:24:24;96662.00;;;13.50
20848;BMP180;10584;50.854;12.902;2024-03-29T12:29:45;96638.00;;;13.80
20848;BMP180;10584;50.854;12.902;2024-03-29T12:35:13;96626.00;;;14.30
20848;BMP180;10584;50.854;12.902;2024-03-29T12:40:34;96633.00;;;14.50
20848;BMP180;10584;50.854;12.902;2024-03-29T12:45:58;96612.00;;;14.80
20848;BMP180;10584;50.854;12.902;2024-03-29T12:51:20;96584.00;;;15.00
20848;BMP180;10584;50.854;12.902;2024-03-29T12:56:49;96569.00;;;15.10
20848;BMP180;10584;50.854;12.902;2024-03-29T13:02:10;96577.00;;;15.20
20848;BMP180;10584;50.854;12.902;2024-03-29T13:07:33;96575.00;;;15.30
20848;BMP180;10584;50.854;12.902;2024-03-29T13:12:54;96549.00;;;15.40
20848;BMP180;10584;50.854;12.902;2024-03-29T13:18:15;96553.00;;;15.50
20848;BMP180;10584;50.854;12.902;2024-03-29T13:23:39;96548.00;;;15.60
20848;BMP180;10584;50.854;12.902;2024-03-29T13:29:02;96527.00;;;15.60
20848;BMP180;10584;50.854;12.902;2024-03-29T13:34:23;96522.00;;;15.70
20848;BMP180;10584;50.854;12.902;2024-03-29T13:39:43;96540.00;;;16.10
20848;BMP180;10584;50.854;12.902;2024-03-29T13:45:05;96541.00;;;16.50
20848;BMP180;10584;50.854;12.902;2024-03-29T13:50:27;96530.00;;;16.50
20848;BMP180;10584;50.854;12.902;2024-03-29T13:55:47;96525.00;;;16.60
20848;BMP180;10584;50.854;12.902;2024-03-29T14:01:08;96515.00;;;16.70
20848;BMP180;10584;50.854;12.902;2024-03-29T14:06:29;96527.00;;;17.10
20848;BMP180;10584;50.854;12.902;2024-03-29T14:11:50;96507.00;;;17.20
20848;BMP180;10584;50.854;12.902;2024-03-29T14:17:10;96513.00;;;17.20
20848;BMP180;10584;50.854;12.902;2024-03-29T14:22:33;96515.00;;;17.00
20848;BMP180;10584;50.854;12.902;2024-03-29T14:28:03;96515.00;;;16.80
20848;BMP180;10584;50.854;12.902;2024-03-29T14:33:34;96510.00;;;16.80
20848;BMP180;10584;50.854;12.902;2024-03-29T14:38:58;96512.00;;;16.90
20848;BMP180;10584;50.854;12.902;2024-03-29T14:44:21;96509.00;;;17.00
20848;BMP180;10584;50.854;12.902;2024-03-29T14:49:42;96525.00;;;17.00
20848;BMP180;10584;50.854;12.902;2024-03-29T14:55:03;96529.00;;;17.00
20848;BMP180;10584;50.854;12.902;2024-03-29T15:00:24;96543.00;;;16.90
20848;BMP180;10584;50.854;12.902;2024-03-29T15:05:48;96551.00;;;17.40
20848;BMP180;10584;50.854;12.902;2024-03-29T15:11:14;96561.00;;;17.40
20848;BMP180;10584;50.854;12.902;2024-03-29T15:16:44;96574.00;;;17.40
20848;BMP180;10584;50.854;12.902;2024-03-29T15:22:04;96572.00;;;17.40
20848;BMP180;10584;50.854;12.902;2024-03-29T15:27:29;96584.00;;;17.20
20848;BMP180;10584;50.854;12.902;2024-03-29T15:33:11;96590.00;;;17.30
20848;BMP180;10584;50.854;12.902;2024-03-29T15:38:35;96600.00;;;17.50
20848;BMP180;10584;50.854;12.902;2024-03-29T15:43:58;96611.00;;;17.30
20848;BMP180;10584;50.854;12.902;2024-03-29T15:49:21;96616.00;;;17.30
20848;BMP180;10584;50.854;12.902;2024-03-29T15:54:42;96616.00;;;17.20
20848;BMP180;10584;50.854;12.902;2024-03-29T16:00:03;96626.00;;;17.10
20848;BMP180;10584;50.854;12.902;2024-03-29T16:05:31;96630.00;;;17.00
20848;BMP180;10584;50.854;12.902;2024-03-29T16:10:59;96631.00;;;17.00
20848;BMP180;10584;50.854;12.902;2024-03-29T16:16:26;96636.00;;;16.80
20848;BMP180;10584;50.854;12.902;2024-03-29T16:21:49;96633.00;;;16.60
20848;BMP180;10584;50.854;12.902;2024-03-29T16:27:10;96637.00;;;16.60
20848;BMP180;10584;50.854;12.902;2024-03-29T16:32:32;96644.00;;;16.60
20848;BMP180;10584;50.854;12.902;2024-03-29T16:37:55;96644.00;;;16.50
20848;BMP180;10584;50.854;12.902;2024-03-29T16:43:19;96645.00;;;16.40
20848;BMP180;10584;50.854;12.902;2024-03-29T16:48:44;96638.00;;;16.20
20848;BMP180;10584;50.854;12.902;2024-03-29T16:54:05;96636.00;;;16.20
20848;BMP180;10584;50.854;12.902;2024-03-29T16:59:26;96639.00;;;16.10
20848;BMP180;10584;50.854;12.902;2024-03-29T17:04:51;96612.00;;;16.00
20848;BMP180;10584;50.854;12.902;2024-03-29T17:10:12;96628.00;;;15.90
20848;BMP180;10584;50.854;12.902;2024-03-29T17:15:34;96616.00;;;15.80
20848;BMP180;10584;50.854;12.902;2024-03-29T17:20:55;96606.00;;;15.70
20848;BMP180;10584;50.854;12.902;2024-03-29T17:26:18;96605.00;;;15.60
20848;BMP180;10584;50.854;12.902;2024-03-29T17:31:42;96600.00;;;15.50
20848;BMP180;10584;50.854;12.902;2024-03-29T17:37:09;96606.00;;;15.20
20848;BMP180;10584;50.854;12.902;2024-03-29T17:42:32;96604.00;;;15.10
20848;BMP180;10584;50.854;12.902;2024-03-29T17:48:10;96608.00;;;15.10
20848;BMP180;10584;50.854;12.902;2024-03-29T17:53:36;96603.00;;;14.90
20848;BMP180;10584;50.854;12.902;2024-03-29T17:58:56;96604.00;;;14.80
20848;BMP180;10584;50.854;12.902;2024-03-29T18:04:19;96604.00;;;14.70
20848;BMP180;10584;50.854;12.902;2024-03-29T18:09:40;96619.00;;;14.60
20848;BMP180;10584;50.854;12.902;2024-03-29T18:15:02;96625.00;;;14.30
20848;BMP180;10584;50.854;12.902;2024-03-29T18:20:23;96617.00;;;14.20
20848;BMP180;10584;50.854;12.902;2024-03-29T18:25:43;96620.00;;;14.10
20848;BMP180;10584;50.854;12.902;2024-03-29T18:31:04;96617.00;;;14.00
20848;BMP180;10584;50.854;12.902;2024-03-29T18:36:30;96623.00;;;13.90
20848;BMP180;10584;50.854;12.902;2024-03-29T18:41:51;96617.00;;;13.80
20848;BMP180;10584;50.854;12.902;2024-03-29T18:47:13;96617.00;;;13.60
20848;BMP180;10584;50.854;12.902;2024-03-29T18:52:39;96620.00;;;13.50
20848;BMP180;10584;50.854;12.902;2024-03-29T18:58:02;96615.00;;;13.40
20848;BMP180;10584;50.854;12.902;2024-03-29T19:03:23;96621.00;;;13.30
20848;BMP180;10584;50.854;12.902;2024-03-29T19:08:44;96614.00;;;13.20
20848;BMP180;10584;50.854;12.902;2024-03-29T19:14:05;96610.00;;;13.00
20848;BMP180;10584;50.854;12.902;2024-03-29T19:19:25;96621.00;;;12.90
20848;BMP180;10584;50.854;12.902;2024-03-29T19:24:46;96611.00;;;12.70
20848;BMP180;10584;50.854;12.902;2024-03-29T19:30:13;96605.00;;;12.50
20848;BMP180;10584;50.854;12.902;2024-03-29T19:35:33;96627.00;;;12.50
20848;BMP180;10584;50.854;12.902;2024-03-29T19:40:54;96619.00;;;12.40
20848;BMP180;10584;50.854;12.902;2024-03-29T19:46:15;96613.00;;;12.20
20848;BMP180;10584;50.854;12.902;2024-03-29T19:51:44;96612.00;;;12.00
20848;BMP180;10584;50.854;12.902;2024-03-29T19:57:05;96615.00;;;11.90
20848;BMP180;10584;50.854;12.902;2024-03-29T20:02:26;96620.00;;;11.80
20848;BMP180;10584;50.854;12.902;2024-03-29T20:07:53;96630.00;;;11.60
20848;BMP180;10584;50.854;12.902;2024-03-29T20:13:14;96619.00;;;11.50
20848;BMP180;10584;50.854;12.902;2024-03-29T20:18:37;96620.00;;;11.40
20848;BMP180;10584;50.854;12.902;2024-03-29T20:24:00;96617.00;;;11.20
20848;BMP180;10584;50.854;12.902;2024-03-29T20:29:21;96616.00;;;11.20
20848;BMP180;10584;50.854;12.902;2024-03-29T20:34:42;96619.00;;;11.10
20848;BMP180;10584;50.854;12.902;2024-03-29T20:40:03;96613.00;;;11.00
20848;BMP180;10584;50.854;12.902;2024-03-29T20:45:24;96619.00;;;10.90
20848;BMP180;10584;50.854;12.902;2024-03-29T20:50:45;96631.00;;;10.80
20848;BMP180;10584;50.854;12.902;2024-03-29T20:56:11;96631.00;;;10.70
20848;BMP180;10584;50.854;12.902;2024-03-29T21:01:34;96620.00;;;10.60
20848;BMP180;10584;50.854;12.902;2024-03-29T21:07:13;96624.00;;;10.50
20848;BMP180;10584;50.854;12.902;2024-03-29T21:12:35;96624.00;;;10.40
20848;BMP180;10584;50.854;12.902;2024-03-29T21:17:56;96623.00;;;10.30
20848;BMP180;10584;50.854;12.902;2024-03-29T21:23:19;96623.00;;;10.20
20848;BMP180;10584;50.854;12.902;2024-03-29T21:28:42;96635.00;;;10.10
20848;BMP180;10584;50.854;12.902;2024-03-29T21:34:03;96636.00;;;10.00
20848;BMP180;10584;50.854;12.902;2024-03-29T21:39:24;96638.00;;;10.00
20848;BMP180;10584;50.854;12.902;2024-03-29T21:44:47;96641.00;;;9.90
20848;BMP180;10584;50.854;12.902;2024-03-29T21:50:09;96641.00;;;9.80
20848;BMP180;10584;50.854;12.902;2024-03-29T21:55:30;96636.00;;;9.80
20848;BMP180;10584;50.854;12.902;2024-03-29T22:00:51;96638.00;;;9.70
20848;BMP180;10584;50.854;12.902;2024-03-29T22:06:11;96631.00;;;9.70
20848;BMP180;10584;50.854;12.902;2024-03-29T22:11:43;96628.00;;;9.70
20848;BMP180;10584;50.854;12.902;2024-03-29T22:17:05;96634.00;;;9.80
20848;BMP180;10584;50.854;12.902;2024-03-29T22:22:25;96632.00;;;9.90
20848;BMP180;10584;50.854;12.902;2024-03-29T22:27:47;96612.00;;;9.90
20848;BMP180;10584;50.854;12.902;2024-03-29T22:33:08;96618.00;;;9.90
20848;BMP180;10584;50.854;12.902;2024-03-29T22:38:31;96622.00;;;9.90
20848;BMP180;10584;50.854;12.902;2024-03-29T22:44:03;96630.00;;;9.90
20848;BMP180;10584;50.854;12.902;2024-03-29T22:49:24;96617.00;;;9.80
20848;BMP180;10584;50.854;12.902;2024-03-29T22:54:45;96632.00;;;9.70
20848;BMP180;10584;50.854;12.902;2024-03-29T23:00:06;96611.00;;;9.70
20848;BMP180;10584;50.854;12.902;2024-03-29T23:05:31;96614.00;;;9.70
20848;BMP180;10584;50.854;12.902;2024-03-29T23:10:55;96619.00;;;9.60
20848;BMP180;10584;50.854;12.902;2024-03-29T23:16:18;96618.00;;;9.50
20848;BMP180;10584;50.854;12.902;2024-03-29T23:21:42;96610.00;;;9.50
20848;BMP180;10584;50.854;12.902;2024-03-29T23:27:02;96621.00;;;9.30
20848;BMP180;10584;50.854;12.902;2024-03-29T23:32:23;96628.00;;;9.20
20848;BMP180;10584;50.854;12.902;2024-03-29T23:37:52;96622.00;;;9.20
20848;BMP180;10584;50.854;12.902;2024-03-29T23:43:16;96613.00;;;9.10
20848;BMP180;10584;50.854;12.902;2024-03-29T23:48:39;96612.00;;;9.00
20848;BMP180;10584;50.854;12.902;2024-03-29T23:54:00;96615.00;;;9.00
20848;BMP180;10584;50.854;12.902;2024-03-29T23:59:21;96609.00;;;8.90
